EDW78 FSIA-FIMP
Flight info
| Callsign | EDW78 |
|---|---|
| Flight time | 2h 9m |
| Altitude | 41000 |
| Route | NESID1B NESID DCT ALRAN/N0482F400 UT400 DUNRI DUNRI1E |
| Aircraft | A359/H-SDE2E3GHIJ3J4J5LM1ORWXY/LB1D1 |
Departure
| Time | 2026-04-26 07:00 |
|---|---|
| Airport | Seychelles International Airport (FSIA) |
Arrival
| Time | 2026-04-26 09:09 |
|---|---|
| Airport | Sir Seewoosagur Ramgoolam International Airport (FIMP) |
| Time | Latitude | Longitude | Altitude | Speed | Heading |
|---|---|---|---|---|---|
| 2026-04-26 06:40 | -4.67114 | 55.51280 | 27 ft | 0 kts | 213° |
| 2026-04-26 06:52 | -4.67097 | 55.51292 | 25 ft | 4 kts | 224° |
| 2026-04-26 06:52 | -4.67078 | 55.51307 | 27 ft | 4 kts | 183° |
| 2026-04-26 06:53 | -4.67054 | 55.51306 | 27 ft | 4 kts | 170° |
| 2026-04-26 06:53 | -4.67028 | 55.51299 | 25 ft | 4 kts | 162° |
| 2026-04-26 06:53 | -4.67004 | 55.51295 | 24 ft | 4 kts | 205° |
| 2026-04-26 06:53 | -4.66996 | 55.51299 | 24 ft | 0 kts | 215° |
| 2026-04-26 06:57 | -4.67010 | 55.51282 | 24 ft | 7 kts | 239° |
| 2026-04-26 06:57 | -4.66994 | 55.51219 | 27 ft | 13 kts | 310° |
| 2026-04-26 06:57 | -4.66913 | 55.51201 | 27 ft | 13 kts | 341° |
| 2026-04-26 06:57 | -4.66858 | 55.51142 | 27 ft | 6 kts | 303° |
| 2026-04-26 06:58 | -4.66828 | 55.51097 | 27 ft | 9 kts | 303° |
| 2026-04-26 06:58 | -4.66782 | 55.51040 | 27 ft | 11 kts | 324° |
| 2026-04-26 06:58 | -4.66705 | 55.51051 | 27 ft | 13 kts | 33° |
| 2026-04-26 06:58 | -4.66691 | 55.51081 | 29 ft | 3 kts | 94° |
| 2026-04-26 06:59 | -4.66702 | 55.51106 | 29 ft | 0 kts | 120° |
| 2026-04-26 06:59 | -4.66796 | 55.51251 | 29 ft | 61 kts | 125° |
| 2026-04-26 06:59 | -4.67169 | 55.51790 | 28 ft | 128 kts | 124° |
| 2026-04-26 07:00 | -4.67775 | 55.52664 | 299 ft | 162 kts | 125° |
| 2026-04-26 07:00 | -4.68412 | 55.53562 | 1058 ft | 154 kts | 129° |
| 2026-04-26 07:00 | -4.69064 | 55.54454 | 1588 ft | 168 kts | 128° |
| 2026-04-26 07:00 | -4.69797 | 55.55436 | 2008 ft | 184 kts | 128° |
| 2026-04-26 07:01 | -4.70591 | 55.56536 | 2414 ft | 205 kts | 127° |
| 2026-04-26 07:01 | -4.71457 | 55.57790 | 2736 ft | 233 kts | 126° |
| 2026-04-26 07:01 | -4.72443 | 55.59185 | 3070 ft | 255 kts | 131° |
| 2026-04-26 07:01 | -4.73952 | 55.60111 | 3661 ft | 261 kts | 169° |
| 2026-04-26 07:02 | -4.75774 | 55.60225 | 4440 ft | 264 kts | 181° |
| 2026-04-26 07:02 | -4.77595 | 55.60230 | 5286 ft | 266 kts | 180° |
| 2026-04-26 07:02 | -4.79447 | 55.60274 | 6154 ft | 267 kts | 179° |
| 2026-04-26 07:02 | -4.81315 | 55.60366 | 6911 ft | 272 kts | 178° |
| 2026-04-26 07:03 | -4.83233 | 55.60481 | 7646 ft | 278 kts | 177° |
| 2026-04-26 07:03 | -4.85184 | 55.60601 | 8420 ft | 284 kts | 177° |
| 2026-04-26 07:03 | -4.87176 | 55.60720 | 9189 ft | 290 kts | 176° |
| 2026-04-26 07:03 | -4.89213 | 55.60840 | 9972 ft | 296 kts | 176° |
| 2026-04-26 07:04 | -4.91324 | 55.60964 | 10454 ft | 313 kts | 176° |
| 2026-04-26 07:04 | -4.93577 | 55.61096 | 10792 ft | 333 kts | 176° |
| 2026-04-26 07:04 | -4.95954 | 55.61234 | 11163 ft | 350 kts | 176° |
| 2026-04-26 07:04 | -4.98410 | 55.61376 | 11737 ft | 357 kts | 176° |
| 2026-04-26 07:05 | -5.00921 | 55.61521 | 12370 ft | 364 kts | 175° |
| 2026-04-26 07:05 | -5.03459 | 55.61668 | 13071 ft | 367 kts | 176° |
| 2026-04-26 07:05 | -5.06019 | 55.61816 | 13769 ft | 370 kts | 175° |
| 2026-04-26 07:05 | -5.08564 | 55.61963 | 14351 ft | 374 kts | 175° |
| 2026-04-26 07:06 | -5.11178 | 55.62114 | 14957 ft | 377 kts | 175° |
| 2026-04-26 07:06 | -5.13803 | 55.62266 | 15569 ft | 380 kts | 175° |
| 2026-04-26 07:06 | -5.16453 | 55.62447 | 16170 ft | 382 kts | 173° |
| 2026-04-26 07:06 | -5.19103 | 55.62750 | 16756 ft | 385 kts | 171° |
| 2026-04-26 07:07 | -5.21768 | 55.63133 | 17356 ft | 388 kts | 170° |
| 2026-04-26 07:07 | -5.24438 | 55.63555 | 17940 ft | 391 kts | 169° |
| 2026-04-26 07:07 | -5.27147 | 55.63994 | 18482 ft | 394 kts | 169° |
| 2026-04-26 07:07 | -5.29869 | 55.64434 | 18975 ft | 397 kts | 169° |
| 2026-04-26 07:08 | -5.32609 | 55.64869 | 19471 ft | 400 kts | 170° |
| 2026-04-26 07:08 | -5.35342 | 55.65297 | 19978 ft | 403 kts | 170° |
| 2026-04-26 07:08 | -5.38127 | 55.65727 | 20494 ft | 406 kts | 170° |
| 2026-04-26 07:08 | -5.40933 | 55.66158 | 21017 ft | 409 kts | 170° |
| 2026-04-26 07:09 | -5.43762 | 55.66591 | 21540 ft | 412 kts | 170° |
| 2026-04-26 07:09 | -5.46604 | 55.67026 | 22066 ft | 415 kts | 171° |
| 2026-04-26 07:09 | -5.49475 | 55.67465 | 22562 ft | 418 kts | 170° |
| 2026-04-26 07:09 | -5.52378 | 55.67910 | 23072 ft | 422 kts | 171° |
| 2026-04-26 07:10 | -5.61131 | 55.69252 | 24418 ft | 429 kts | 171° |
| 2026-04-26 07:11 | -5.67086 | 55.70166 | 25307 ft | 435 kts | 171° |
| 2026-04-26 07:11 | -5.70093 | 55.70628 | 25836 ft | 437 kts | 171° |
| 2026-04-26 07:11 | -5.73109 | 55.71090 | 26352 ft | 439 kts | 172° |
| 2026-04-26 07:11 | -5.76131 | 55.71554 | 26866 ft | 441 kts | 172° |
| 2026-04-26 07:12 | -5.79179 | 55.72022 | 27291 ft | 445 kts | 172° |
| 2026-04-26 07:12 | -5.82257 | 55.72494 | 27744 ft | 449 kts | 172° |
| 2026-04-26 07:12 | -5.85361 | 55.72971 | 28229 ft | 452 kts | 172° |
| 2026-04-26 07:12 | -5.88441 | 55.73444 | 28690 ft | 455 kts | 172° |
| 2026-04-26 07:13 | -5.91583 | 55.73926 | 29144 ft | 458 kts | 172° |
| 2026-04-26 07:13 | -5.94749 | 55.74413 | 29588 ft | 461 kts | 172° |
| 2026-04-26 07:13 | -5.97937 | 55.74902 | 30021 ft | 464 kts | 172° |
| 2026-04-26 07:13 | -6.01146 | 55.75395 | 30377 ft | 467 kts | 172° |
| 2026-04-26 07:14 | -6.04369 | 55.75891 | 30732 ft | 470 kts | 172° |
| 2026-04-26 07:14 | -6.07621 | 55.76391 | 31075 ft | 473 kts | 172° |
| 2026-04-26 07:14 | -6.10890 | 55.76893 | 31412 ft | 476 kts | 172° |
| 2026-04-26 07:14 | -6.14132 | 55.77392 | 31753 ft | 479 kts | 172° |
| 2026-04-26 07:15 | -6.17436 | 55.77900 | 32109 ft | 481 kts | 172° |
| 2026-04-26 07:15 | -6.20751 | 55.78409 | 32431 ft | 483 kts | 172° |
| 2026-04-26 07:15 | -6.24092 | 55.78924 | 32659 ft | 488 kts | 172° |
| 2026-04-26 07:15 | -6.27466 | 55.79443 | 32924 ft | 491 kts | 172° |
| 2026-04-26 07:16 | -6.30862 | 55.79965 | 33188 ft | 495 kts | 172° |
| 2026-04-26 07:16 | -6.34282 | 55.80491 | 33410 ft | 499 kts | 172° |
| 2026-04-26 07:16 | -6.37732 | 55.81022 | 33690 ft | 501 kts | 172° |
| 2026-04-26 07:16 | -6.40016 | 55.81373 | 33875 ft | 503 kts | 172° |
| 2026-04-26 07:17 | -6.43478 | 55.81906 | 34096 ft | 505 kts | 172° |
| 2026-04-26 07:17 | -6.48103 | 55.82618 | 34449 ft | 506 kts | 172° |
| 2026-04-26 07:17 | -6.51587 | 55.83154 | 34782 ft | 506 kts | 172° |
| 2026-04-26 07:17 | -6.53934 | 55.83516 | 35001 ft | 505 kts | 172° |
| 2026-04-26 07:18 | -6.58535 | 55.84225 | 35420 ft | 505 kts | 172° |
| 2026-04-26 07:18 | -6.60880 | 55.84586 | 35634 ft | 505 kts | 172° |
| 2026-04-26 07:18 | -6.64348 | 55.85120 | 35945 ft | 504 kts | 172° |
| 2026-04-26 07:18 | -6.67780 | 55.85649 | 36220 ft | 505 kts | 172° |
| 2026-04-26 07:19 | -6.71266 | 55.86186 | 36505 ft | 505 kts | 172° |
| 2026-04-26 07:19 | -6.74741 | 55.86721 | 36777 ft | 505 kts | 172° |
| 2026-04-26 07:19 | -6.78222 | 55.87258 | 37055 ft | 506 kts | 172° |
| 2026-04-26 07:19 | -6.81700 | 55.87794 | 37322 ft | 506 kts | 172° |
| 2026-04-26 07:20 | -6.85177 | 55.88330 | 37594 ft | 506 kts | 172° |
| 2026-04-26 07:20 | -6.88653 | 55.88866 | 37877 ft | 506 kts | 172° |
| 2026-04-26 07:20 | -6.92134 | 55.89403 | 38141 ft | 506 kts | 173° |
| 2026-04-26 07:20 | -6.95613 | 55.89940 | 38291 ft | 508 kts | 173° |
| 2026-04-26 07:21 | -6.99124 | 55.90481 | 38424 ft | 510 kts | 173° |
| 2026-04-26 07:21 | -7.02596 | 55.91016 | 38671 ft | 510 kts | 173° |
| 2026-04-26 07:21 | -7.06101 | 55.91557 | 38904 ft | 509 kts | 173° |
| 2026-04-26 07:21 | -7.09607 | 55.92099 | 39128 ft | 509 kts | 173° |
| 2026-04-26 07:22 | -7.13103 | 55.92639 | 39349 ft | 508 kts | 173° |
| 2026-04-26 07:22 | -7.16598 | 55.93179 | 39548 ft | 508 kts | 173° |
| 2026-04-26 07:22 | -7.20104 | 55.93720 | 39741 ft | 508 kts | 173° |
| 2026-04-26 07:22 | -7.23592 | 55.94259 | 39943 ft | 507 kts | 173° |
| 2026-04-26 07:23 | -7.27087 | 55.94799 | 40138 ft | 506 kts | 173° |
| 2026-04-26 07:23 | -7.30571 | 55.95337 | 40340 ft | 506 kts | 173° |
| 2026-04-26 07:23 | -7.34052 | 55.95875 | 40510 ft | 506 kts | 173° |
| 2026-04-26 07:23 | -7.37531 | 55.96412 | 40676 ft | 505 kts | 173° |
| 2026-04-26 07:24 | -7.41005 | 55.96949 | 40847 ft | 505 kts | 173° |
| 2026-04-26 07:24 | -7.47983 | 55.98027 | 40908 ft | 508 kts | 173° |
| 2026-04-26 07:25 | -7.54933 | 55.99102 | 40906 ft | 508 kts | 173° |
| 2026-04-26 07:25 | -7.61925 | 56.00184 | 40904 ft | 507 kts | 173° |
| 2026-04-26 07:26 | -7.68903 | 56.01264 | 40903 ft | 507 kts | 173° |
| 2026-04-26 07:26 | -7.75885 | 56.02345 | 40905 ft | 507 kts | 173° |
| 2026-04-26 07:27 | -7.82829 | 56.03420 | 40906 ft | 507 kts | 173° |
| 2026-04-26 07:27 | -7.89815 | 56.04502 | 40906 ft | 507 kts | 173° |
| 2026-04-26 07:28 | -7.96804 | 56.05585 | 40908 ft | 507 kts | 173° |
| 2026-04-26 07:28 | -8.03794 | 56.06668 | 40905 ft | 507 kts | 173° |
| 2026-04-26 07:29 | -8.10779 | 56.07751 | 40903 ft | 507 kts | 173° |
| 2026-04-26 07:29 | -8.17724 | 56.08829 | 40901 ft | 507 kts | 173° |
| 2026-04-26 07:30 | -8.24713 | 56.09913 | 40904 ft | 508 kts | 173° |
| 2026-04-26 07:30 | -8.31696 | 56.10997 | 40903 ft | 508 kts | 173° |
| 2026-04-26 07:31 | -8.38680 | 56.12081 | 40903 ft | 508 kts | 173° |
| 2026-04-26 07:31 | -8.45663 | 56.13166 | 40902 ft | 507 kts | 173° |
| 2026-04-26 07:32 | -8.52611 | 56.14246 | 40903 ft | 508 kts | 173° |
| 2026-04-26 07:32 | -8.59600 | 56.15332 | 40904 ft | 508 kts | 173° |
| 2026-04-26 07:33 | -8.66591 | 56.16419 | 40904 ft | 508 kts | 173° |
| 2026-04-26 07:33 | -8.73578 | 56.17506 | 40902 ft | 508 kts | 173° |
| 2026-04-26 07:34 | -8.80569 | 56.18594 | 40905 ft | 508 kts | 173° |
| 2026-04-26 07:34 | -8.87550 | 56.19681 | 40901 ft | 507 kts | 172° |
| 2026-04-26 07:35 | -8.94536 | 56.20769 | 40900 ft | 507 kts | 172° |
| 2026-04-26 07:35 | -9.01477 | 56.21851 | 40901 ft | 507 kts | 172° |
| 2026-04-26 07:36 | -9.08468 | 56.22940 | 40901 ft | 507 kts | 173° |
| 2026-04-26 07:36 | -9.15447 | 56.24028 | 40902 ft | 507 kts | 172° |
| 2026-04-26 07:37 | -9.22428 | 56.25117 | 40903 ft | 507 kts | 172° |
| 2026-04-26 07:37 | -9.29410 | 56.26207 | 40901 ft | 507 kts | 172° |
| 2026-04-26 07:38 | -9.36397 | 56.27298 | 40903 ft | 507 kts | 173° |
| 2026-04-26 07:38 | -9.43377 | 56.28388 | 40902 ft | 507 kts | 172° |
| 2026-04-26 07:39 | -9.50314 | 56.29472 | 40901 ft | 507 kts | 172° |
| 2026-04-26 07:39 | -9.57296 | 56.30563 | 40899 ft | 507 kts | 172° |
| 2026-04-26 07:40 | -9.64265 | 56.31653 | 40899 ft | 507 kts | 172° |
| 2026-04-26 07:40 | -9.71241 | 56.32744 | 40901 ft | 507 kts | 172° |
| 2026-04-26 07:41 | -9.78223 | 56.33837 | 40901 ft | 507 kts | 172° |
| 2026-04-26 07:41 | -9.85151 | 56.34921 | 40900 ft | 506 kts | 172° |
| 2026-04-26 07:42 | -9.92118 | 56.36013 | 40900 ft | 506 kts | 172° |
| 2026-04-26 07:42 | -9.99083 | 56.37105 | 40900 ft | 506 kts | 172° |
| 2026-04-26 07:43 | -10.06081 | 56.37989 | 40900 ft | 505 kts | 176° |
| 2026-04-26 07:43 | -10.13049 | 56.38516 | 40896 ft | 505 kts | 177° |
| 2026-04-26 07:44 | -10.20054 | 56.39047 | 40902 ft | 504 kts | 176° |
| 2026-04-26 07:44 | -10.27051 | 56.39638 | 40900 ft | 504 kts | 176° |
| 2026-04-26 07:45 | -10.34061 | 56.40259 | 40899 ft | 504 kts | 176° |
| 2026-04-26 07:45 | -10.41061 | 56.40884 | 40896 ft | 504 kts | 176° |
| 2026-04-26 07:46 | -10.48002 | 56.41502 | 40899 ft | 504 kts | 176° |
| 2026-04-26 07:46 | -10.54991 | 56.42123 | 40896 ft | 503 kts | 176° |
| 2026-04-26 07:47 | -10.61975 | 56.42742 | 40890 ft | 503 kts | 176° |
| 2026-04-26 07:47 | -10.68971 | 56.43364 | 40897 ft | 504 kts | 176° |
| 2026-04-26 07:48 | -10.75914 | 56.43981 | 40898 ft | 503 kts | 176° |
| 2026-04-26 07:48 | -10.82901 | 56.44602 | 40900 ft | 503 kts | 176° |
| 2026-04-26 07:49 | -10.89880 | 56.45223 | 40894 ft | 503 kts | 176° |
| 2026-04-26 07:49 | -10.96814 | 56.45840 | 40894 ft | 503 kts | 176° |
| 2026-04-26 07:50 | -11.07292 | 56.46773 | 40904 ft | 503 kts | 177° |
| 2026-04-26 07:50 | -11.14283 | 56.47396 | 40897 ft | 503 kts | 177° |
| 2026-04-26 07:51 | -11.21272 | 56.48019 | 40899 ft | 503 kts | 177° |
| 2026-04-26 07:51 | -11.28208 | 56.48638 | 40899 ft | 503 kts | 177° |
| 2026-04-26 07:52 | -11.35196 | 56.49262 | 40897 ft | 503 kts | 178° |
| 2026-04-26 07:52 | -11.42185 | 56.49886 | 40897 ft | 503 kts | 178° |
| 2026-04-26 07:53 | -11.49171 | 56.50510 | 40902 ft | 503 kts | 178° |
| 2026-04-26 07:53 | -11.56112 | 56.51130 | 40901 ft | 503 kts | 178° |
| 2026-04-26 07:54 | -11.63095 | 56.51754 | 40901 ft | 503 kts | 178° |
| 2026-04-26 07:54 | -11.70076 | 56.52379 | 40904 ft | 503 kts | 178° |
| 2026-04-26 07:55 | -11.77059 | 56.53004 | 40901 ft | 503 kts | 178° |
| 2026-04-26 07:55 | -11.84042 | 56.53629 | 40893 ft | 503 kts | 178° |
| 2026-04-26 07:56 | -11.91020 | 56.54254 | 40895 ft | 503 kts | 178° |
| 2026-04-26 07:56 | -11.97966 | 56.54878 | 40899 ft | 503 kts | 178° |
| 2026-04-26 07:57 | -12.04944 | 56.55503 | 40903 ft | 503 kts | 178° |
| 2026-04-26 07:57 | -12.11919 | 56.56129 | 40903 ft | 503 kts | 178° |
| 2026-04-26 07:58 | -12.18887 | 56.56755 | 40903 ft | 503 kts | 178° |
| 2026-04-26 07:58 | -12.25858 | 56.57381 | 40897 ft | 503 kts | 178° |
| 2026-04-26 07:59 | -12.32828 | 56.58007 | 40908 ft | 502 kts | 178° |
| 2026-04-26 07:59 | -12.39748 | 56.58630 | 40908 ft | 502 kts | 178° |
| 2026-04-26 08:00 | -12.46703 | 56.59255 | 40910 ft | 502 kts | 178° |
| 2026-04-26 08:00 | -12.53678 | 56.59883 | 40911 ft | 502 kts | 178° |
| 2026-04-26 08:01 | -12.60643 | 56.60511 | 40902 ft | 501 kts | 179° |
| 2026-04-26 08:01 | -12.67586 | 56.61137 | 40905 ft | 501 kts | 179° |
| 2026-04-26 08:02 | -12.74497 | 56.61760 | 40898 ft | 501 kts | 179° |
| 2026-04-26 08:02 | -12.81433 | 56.62385 | 40904 ft | 501 kts | 179° |
| 2026-04-26 08:03 | -12.88380 | 56.63013 | 40917 ft | 500 kts | 179° |
| 2026-04-26 08:03 | -12.95310 | 56.63639 | 40900 ft | 499 kts | 179° |
| 2026-04-26 08:04 | -13.02202 | 56.64262 | 40913 ft | 499 kts | 179° |
| 2026-04-26 08:04 | -13.09129 | 56.64888 | 40909 ft | 499 kts | 179° |
| 2026-04-26 08:05 | -13.14885 | 56.65408 | 40898 ft | 499 kts | 179° |
| 2026-04-26 08:05 | -13.21804 | 56.66035 | 40902 ft | 498 kts | 179° |
| 2026-04-26 08:06 | -13.28718 | 56.66662 | 40911 ft | 498 kts | 179° |
| 2026-04-26 08:06 | -13.35624 | 56.67287 | 40903 ft | 498 kts | 179° |
| 2026-04-26 08:07 | -13.42536 | 56.67913 | 40905 ft | 498 kts | 179° |
| 2026-04-26 08:07 | -13.49392 | 56.68535 | 40912 ft | 497 kts | 179° |
| 2026-04-26 08:08 | -13.56297 | 56.69162 | 40916 ft | 497 kts | 179° |
| 2026-04-26 08:08 | -13.63189 | 56.69788 | 40913 ft | 497 kts | 179° |
| 2026-04-26 08:09 | -13.70080 | 56.70414 | 40912 ft | 497 kts | 179° |
| 2026-04-26 08:09 | -13.76937 | 56.71038 | 40912 ft | 497 kts | 179° |
| 2026-04-26 08:10 | -13.83834 | 56.71666 | 40902 ft | 497 kts | 179° |
| 2026-04-26 08:10 | -13.90739 | 56.72294 | 40910 ft | 498 kts | 179° |
| 2026-04-26 08:11 | -13.97640 | 56.72923 | 40905 ft | 498 kts | 179° |
| 2026-04-26 08:11 | -14.04544 | 56.73552 | 40912 ft | 498 kts | 179° |
| 2026-04-26 08:12 | -14.11443 | 56.74181 | 40913 ft | 497 kts | 180° |
| 2026-04-26 08:12 | -14.18338 | 56.74811 | 40906 ft | 497 kts | 180° |
| 2026-04-26 08:13 | -14.25197 | 56.75437 | 40912 ft | 497 kts | 180° |
| 2026-04-26 08:13 | -14.32096 | 56.76067 | 40907 ft | 497 kts | 180° |
| 2026-04-26 08:14 | -14.38985 | 56.76697 | 40920 ft | 497 kts | 180° |
| 2026-04-26 08:14 | -14.45873 | 56.77328 | 40907 ft | 496 kts | 180° |
| 2026-04-26 08:15 | -14.52750 | 56.77958 | 40907 ft | 496 kts | 180° |
| 2026-04-26 08:15 | -14.59618 | 56.78586 | 40904 ft | 496 kts | 180° |
| 2026-04-26 08:16 | -14.66454 | 56.79212 | 40906 ft | 496 kts | 180° |
| 2026-04-26 08:16 | -14.73324 | 56.79843 | 40905 ft | 495 kts | 180° |
| 2026-04-26 08:17 | -14.80179 | 56.80473 | 40905 ft | 494 kts | 180° |
| 2026-04-26 08:17 | -14.87033 | 56.81102 | 40905 ft | 494 kts | 180° |
| 2026-04-26 08:18 | -14.93886 | 56.81731 | 40909 ft | 494 kts | 180° |
| 2026-04-26 08:18 | -15.00704 | 56.82358 | 40917 ft | 494 kts | 180° |
| 2026-04-26 08:19 | -15.07554 | 56.82989 | 40908 ft | 493 kts | 180° |
| 2026-04-26 08:19 | -15.14401 | 56.83617 | 40908 ft | 493 kts | 180° |
| 2026-04-26 08:20 | -15.21209 | 56.84243 | 40910 ft | 493 kts | 180° |
| 2026-04-26 08:20 | -15.28046 | 56.84872 | 40908 ft | 493 kts | 180° |
| 2026-04-26 08:21 | -15.34900 | 56.85503 | 40906 ft | 493 kts | 180° |
| 2026-04-26 08:21 | -15.41738 | 56.86133 | 40905 ft | 493 kts | 180° |
| 2026-04-26 08:22 | -15.48574 | 56.86764 | 40908 ft | 493 kts | 180° |
| 2026-04-26 08:22 | -15.55368 | 56.87390 | 40908 ft | 493 kts | 180° |
| 2026-04-26 08:23 | -15.62202 | 56.88021 | 40910 ft | 493 kts | 180° |
| 2026-04-26 08:23 | -15.69036 | 56.88653 | 40908 ft | 493 kts | 180° |
| 2026-04-26 08:24 | -15.75875 | 56.89285 | 40905 ft | 493 kts | 180° |
| 2026-04-26 08:24 | -15.82727 | 56.89919 | 40906 ft | 493 kts | 180° |
| 2026-04-26 08:25 | -15.89563 | 56.90552 | 40903 ft | 493 kts | 180° |
| 2026-04-26 08:25 | -15.96368 | 56.91182 | 40902 ft | 494 kts | 180° |
| 2026-04-26 08:26 | -16.03219 | 56.91818 | 40901 ft | 494 kts | 180° |
| 2026-04-26 08:26 | -16.10082 | 56.92454 | 40904 ft | 494 kts | 180° |
| 2026-04-26 08:27 | -16.16883 | 56.93086 | 40905 ft | 494 kts | 180° |
| 2026-04-26 08:27 | -16.23732 | 56.93722 | 40905 ft | 493 kts | 179° |
| 2026-04-26 08:28 | -16.30574 | 56.94358 | 40902 ft | 493 kts | 179° |
| 2026-04-26 08:28 | -16.37417 | 56.94995 | 40901 ft | 493 kts | 179° |
| 2026-04-26 08:29 | -16.44259 | 56.95632 | 40901 ft | 493 kts | 179° |
| 2026-04-26 08:29 | -16.51102 | 56.96269 | 40907 ft | 493 kts | 179° |
| 2026-04-26 08:30 | -16.57934 | 56.96906 | 40900 ft | 493 kts | 179° |
| 2026-04-26 08:30 | -16.64730 | 56.97541 | 40901 ft | 493 kts | 179° |
| 2026-04-26 08:31 | -16.71561 | 56.98178 | 40903 ft | 492 kts | 179° |
| 2026-04-26 08:31 | -16.78391 | 56.98816 | 40903 ft | 492 kts | 179° |
| 2026-04-26 08:32 | -16.85218 | 56.99455 | 40900 ft | 492 kts | 179° |
| 2026-04-26 08:32 | -16.92050 | 57.00094 | 40900 ft | 492 kts | 179° |
| 2026-04-26 08:33 | -16.98832 | 57.00729 | 40900 ft | 492 kts | 179° |
| 2026-04-26 08:33 | -17.05663 | 57.01369 | 40900 ft | 492 kts | 179° |
| 2026-04-26 08:34 | -17.12489 | 57.02009 | 40902 ft | 492 kts | 179° |
| 2026-04-26 08:34 | -17.19322 | 57.02651 | 40900 ft | 492 kts | 179° |
| 2026-04-26 08:35 | -17.26100 | 57.03287 | 40897 ft | 492 kts | 179° |
| 2026-04-26 08:35 | -17.32922 | 57.03928 | 40897 ft | 492 kts | 179° |
| 2026-04-26 08:36 | -17.39751 | 57.04570 | 40906 ft | 492 kts | 179° |
| 2026-04-26 08:36 | -17.46564 | 57.05212 | 40897 ft | 492 kts | 179° |
| 2026-04-26 08:37 | -17.53382 | 57.05854 | 40900 ft | 492 kts | 179° |
| 2026-04-26 08:37 | -17.60200 | 57.06497 | 40900 ft | 492 kts | 179° |
| 2026-04-26 08:38 | -17.67011 | 57.07139 | 40895 ft | 492 kts | 179° |
| 2026-04-26 08:38 | -17.73830 | 57.07783 | 40895 ft | 491 kts | 179° |
| 2026-04-26 08:39 | -17.80593 | 57.08422 | 40897 ft | 490 kts | 179° |
| 2026-04-26 08:39 | -17.87396 | 57.09065 | 40897 ft | 490 kts | 179° |
| 2026-04-26 08:40 | -17.94202 | 57.09709 | 40895 ft | 490 kts | 179° |
| 2026-04-26 08:40 | -18.01006 | 57.10332 | 40897 ft | 490 kts | 180° |
| 2026-04-26 08:41 | -18.07803 | 57.10851 | 40892 ft | 489 kts | 180° |
| 2026-04-26 08:41 | -18.14556 | 57.11374 | 40892 ft | 489 kts | 180° |
| 2026-04-26 08:42 | -18.21348 | 57.11908 | 40896 ft | 488 kts | 180° |
| 2026-04-26 08:42 | -18.28119 | 57.12443 | 40887 ft | 488 kts | 180° |
| 2026-04-26 08:43 | -18.34906 | 57.12979 | 40887 ft | 488 kts | 180° |
| 2026-04-26 08:43 | -18.41645 | 57.13513 | 40886 ft | 488 kts | 180° |
| 2026-04-26 08:44 | -18.48422 | 57.14050 | 40884 ft | 488 kts | 180° |
| 2026-04-26 08:44 | -18.51789 | 57.14319 | 40402 ft | 484 kts | 180° |
| 2026-04-26 08:44 | -18.55161 | 57.14586 | 39559 ft | 488 kts | 180° |
| 2026-04-26 08:45 | -18.58562 | 57.14854 | 38743 ft | 493 kts | 181° |
| 2026-04-26 08:45 | -18.61998 | 57.15126 | 37870 ft | 496 kts | 181° |
| 2026-04-26 08:45 | -18.65443 | 57.15399 | 37041 ft | 497 kts | 180° |
| 2026-04-26 08:45 | -18.68893 | 57.15674 | 36254 ft | 497 kts | 180° |
| 2026-04-26 08:46 | -18.72349 | 57.15949 | 35484 ft | 498 kts | 180° |
| 2026-04-26 08:46 | -18.75815 | 57.16225 | 34711 ft | 498 kts | 180° |
| 2026-04-26 08:46 | -18.79229 | 57.16497 | 33955 ft | 498 kts | 180° |
| 2026-04-26 08:46 | -18.82681 | 57.16771 | 33074 ft | 498 kts | 179° |
| 2026-04-26 08:47 | -18.86143 | 57.17047 | 32214 ft | 497 kts | 179° |
| 2026-04-26 08:47 | -18.89584 | 57.17321 | 31467 ft | 495 kts | 178° |
| 2026-04-26 08:47 | -18.93005 | 57.17594 | 30840 ft | 490 kts | 178° |
| 2026-04-26 08:47 | -18.96382 | 57.17864 | 30227 ft | 484 kts | 178° |
| 2026-04-26 08:48 | -18.99726 | 57.18131 | 29588 ft | 479 kts | 177° |
| 2026-04-26 08:48 | -19.03024 | 57.18395 | 28967 ft | 472 kts | 177° |
| 2026-04-26 08:48 | -19.06283 | 57.18656 | 28400 ft | 466 kts | 178° |
| 2026-04-26 08:48 | -19.09500 | 57.18914 | 27828 ft | 460 kts | 178° |
| 2026-04-26 08:49 | -19.12670 | 57.19167 | 27264 ft | 454 kts | 178° |
| 2026-04-26 08:49 | -19.15806 | 57.19418 | 26704 ft | 449 kts | 178° |
| 2026-04-26 08:49 | -19.18904 | 57.19666 | 26145 ft | 445 kts | 178° |
| 2026-04-26 08:49 | -19.21981 | 57.19912 | 25580 ft | 440 kts | 178° |
| 2026-04-26 08:50 | -19.25024 | 57.20155 | 25022 ft | 436 kts | 178° |
| 2026-04-26 08:50 | -19.28000 | 57.20394 | 24476 ft | 433 kts | 178° |
| 2026-04-26 08:50 | -19.30997 | 57.20634 | 23895 ft | 430 kts | 178° |
| 2026-04-26 08:50 | -19.33978 | 57.20875 | 23206 ft | 429 kts | 178° |
| 2026-04-26 08:51 | -19.39882 | 57.21346 | 21969 ft | 420 kts | 177° |
| 2026-04-26 08:51 | -19.42783 | 57.21578 | 21392 ft | 416 kts | 177° |
| 2026-04-26 08:51 | -19.45648 | 57.21808 | 20812 ft | 411 kts | 177° |
| 2026-04-26 08:52 | -19.48491 | 57.22035 | 20233 ft | 407 kts | 176° |
| 2026-04-26 08:52 | -19.50352 | 57.22185 | 19846 ft | 405 kts | 176° |
| 2026-04-26 08:52 | -19.53160 | 57.22410 | 19268 ft | 402 kts | 176° |
| 2026-04-26 08:52 | -19.55943 | 57.22634 | 18691 ft | 399 kts | 176° |
| 2026-04-26 08:53 | -19.58703 | 57.22862 | 18085 ft | 396 kts | 176° |
| 2026-04-26 08:53 | -19.61445 | 57.23081 | 17446 ft | 393 kts | 176° |
| 2026-04-26 08:53 | -19.64151 | 57.23298 | 16864 ft | 388 kts | 176° |
| 2026-04-26 08:53 | -19.66828 | 57.23512 | 16292 ft | 384 kts | 176° |
| 2026-04-26 08:54 | -19.69478 | 57.23725 | 15744 ft | 379 kts | 176° |
| 2026-04-26 08:54 | -19.72098 | 57.23936 | 15206 ft | 374 kts | 176° |
| 2026-04-26 08:54 | -19.74682 | 57.24143 | 14664 ft | 371 kts | 175° |
| 2026-04-26 08:54 | -19.77250 | 57.24350 | 14104 ft | 368 kts | 175° |
| 2026-04-26 08:55 | -19.79760 | 57.24552 | 13550 ft | 365 kts | 175° |
| 2026-04-26 08:55 | -19.82287 | 57.24756 | 12947 ft | 361 kts | 175° |
| 2026-04-26 08:55 | -19.84779 | 57.24957 | 12395 ft | 357 kts | 175° |
| 2026-04-26 08:55 | -19.87244 | 57.25156 | 11844 ft | 352 kts | 175° |
| 2026-04-26 08:56 | -19.89680 | 57.25352 | 11291 ft | 348 kts | 175° |
| 2026-04-26 08:56 | -19.92064 | 57.25545 | 11041 ft | 336 kts | 175° |
| 2026-04-26 08:56 | -19.94340 | 57.25728 | 10912 ft | 321 kts | 175° |
| 2026-04-26 08:56 | -19.96517 | 57.25904 | 10784 ft | 306 kts | 175° |
| 2026-04-26 08:57 | -19.98595 | 57.26072 | 10662 ft | 292 kts | 175° |
| 2026-04-26 08:57 | -20.00557 | 57.26230 | 10542 ft | 281 kts | 175° |
| 2026-04-26 08:57 | -20.02509 | 57.26387 | 10218 ft | 281 kts | 175° |
| 2026-04-26 08:57 | -20.04452 | 57.26544 | 9874 ft | 279 kts | 174° |
| 2026-04-26 08:58 | -20.06417 | 57.26705 | 9524 ft | 287 kts | 174° |
| 2026-04-26 08:58 | -20.08419 | 57.26868 | 9170 ft | 289 kts | 174° |
| 2026-04-26 08:58 | -20.10420 | 57.27031 | 8810 ft | 288 kts | 174° |
| 2026-04-26 08:58 | -20.12413 | 57.27192 | 8462 ft | 287 kts | 174° |
| 2026-04-26 08:59 | -20.14397 | 57.27353 | 8114 ft | 285 kts | 174° |
| 2026-04-26 08:59 | -20.16373 | 57.27514 | 7763 ft | 284 kts | 174° |
| 2026-04-26 08:59 | -20.18329 | 57.27738 | 7413 ft | 282 kts | 168° |
| 2026-04-26 08:59 | -20.20006 | 57.28455 | 7062 ft | 279 kts | 145° |
| 2026-04-26 09:00 | -20.21366 | 57.29903 | 6719 ft | 277 kts | 127° |
| 2026-04-26 09:00 | -20.22488 | 57.31570 | 6366 ft | 276 kts | 124° |
| 2026-04-26 09:00 | -20.23579 | 57.33248 | 6012 ft | 275 kts | 124° |
| 2026-04-26 09:00 | -20.24670 | 57.34916 | 5666 ft | 274 kts | 125° |
| 2026-04-26 09:01 | -20.25751 | 57.36558 | 5456 ft | 265 kts | 125° |
| 2026-04-26 09:01 | -20.26775 | 57.38107 | 5329 ft | 253 kts | 125° |
| 2026-04-26 09:01 | -20.27763 | 57.39601 | 5197 ft | 241 kts | 125° |
| 2026-04-26 09:01 | -20.28712 | 57.41020 | 5065 ft | 230 kts | 126° |
| 2026-04-26 09:02 | -20.29635 | 57.42370 | 4948 ft | 220 kts | 126° |
| 2026-04-26 09:02 | -20.30511 | 57.43660 | 4823 ft | 211 kts | 126° |
| 2026-04-26 09:02 | -20.31383 | 57.44882 | 4712 ft | 203 kts | 130° |
| 2026-04-26 09:02 | -20.32231 | 57.46049 | 4524 ft | 196 kts | 121° |
| 2026-04-26 09:03 | -20.32884 | 57.47314 | 4311 ft | 194 kts | 117° |
| 2026-04-26 09:03 | -20.33505 | 57.48593 | 4090 ft | 195 kts | 117° |
| 2026-04-26 09:03 | -20.34116 | 57.49871 | 3878 ft | 189 kts | 117° |
| 2026-04-26 09:03 | -20.34684 | 57.51044 | 3836 ft | 167 kts | 117° |
| 2026-04-26 09:04 | -20.35201 | 57.52089 | 3696 ft | 152 kts | 117° |
| 2026-04-26 09:04 | -20.35674 | 57.53054 | 3477 ft | 143 kts | 116° |
| 2026-04-26 09:04 | -20.36117 | 57.53976 | 3281 ft | 137 kts | 116° |
| 2026-04-26 09:04 | -20.36550 | 57.54879 | 3074 ft | 137 kts | 117° |
| 2026-04-26 09:05 | -20.36984 | 57.55782 | 2849 ft | 136 kts | 116° |
| 2026-04-26 09:05 | -20.37411 | 57.56670 | 2657 ft | 134 kts | 114° |
| 2026-04-26 09:05 | -20.37834 | 57.57554 | 2439 ft | 134 kts | 114° |
| 2026-04-26 09:05 | -20.38257 | 57.58433 | 2255 ft | 132 kts | 114° |
| 2026-04-26 09:06 | -20.38659 | 57.59273 | 2059 ft | 127 kts | 114° |
| 2026-04-26 09:06 | -20.39066 | 57.60123 | 1902 ft | 128 kts | 115° |
| 2026-04-26 09:06 | -20.39480 | 57.60958 | 1735 ft | 129 kts | 113° |
| 2026-04-26 09:06 | -20.39886 | 57.61815 | 1509 ft | 130 kts | 113° |
| 2026-04-26 09:07 | -20.40297 | 57.62666 | 1312 ft | 128 kts | 113° |
| 2026-04-26 09:07 | -20.40703 | 57.63515 | 1116 ft | 129 kts | 113° |
| 2026-04-26 09:07 | -20.41109 | 57.64374 | 928 ft | 129 kts | 114° |
| 2026-04-26 09:07 | -20.41520 | 57.65221 | 723 ft | 128 kts | 111° |
| 2026-04-26 09:08 | -20.41920 | 57.66064 | 506 ft | 126 kts | 112° |
| 2026-04-26 09:08 | -20.42322 | 57.66897 | 304 ft | 127 kts | 112° |
| 2026-04-26 09:08 | -20.42721 | 57.67723 | 202 ft | 120 kts | 117° |
| 2026-04-26 09:08 | -20.43051 | 57.68412 | 201 ft | 89 kts | 117° |
| 2026-04-26 09:09 | -20.43278 | 57.68880 | 171 ft | 54 kts | 117° |
| 2026-04-26 09:09 | -20.43423 | 57.69183 | 152 ft | 40 kts | 117° |
| 2026-04-26 09:09 | -20.43495 | 57.69333 | 143 ft | 12 kts | 117° |
| 2026-04-26 09:09 | -20.43543 | 57.69371 | 141 ft | 9 kts | 183° |
| 2026-04-26 09:10 | -20.43601 | 57.69347 | 144 ft | 8 kts | 205° |
| 2026-04-26 09:10 | -20.43629 | 57.69332 | 149 ft | 1 kts | 206° |
| 2026-04-26 09:10 | -20.43636 | 57.69329 | 149 ft | 4 kts | 206° |
| 2026-04-26 09:10 | -20.43663 | 57.69306 | 154 ft | 4 kts | 243° |
| 2026-04-26 09:11 | -20.43656 | 57.69273 | 157 ft | 8 kts | 293° |
| 2026-04-26 09:11 | -20.43621 | 57.69186 | 164 ft | 17 kts | 297° |
| 2026-04-26 09:11 | -20.43563 | 57.69069 | 173 ft | 17 kts | 297° |
| 2026-04-26 09:11 | -20.43510 | 57.68961 | 178 ft | 17 kts | 297° |
| 2026-04-26 09:12 | -20.43452 | 57.68840 | 179 ft | 19 kts | 297° |
| 2026-04-26 09:12 | -20.43388 | 57.68708 | 182 ft | 21 kts | 297° |
| 2026-04-26 09:12 | -20.43319 | 57.68565 | 189 ft | 23 kts | 297° |
| 2026-04-26 09:12 | -20.43245 | 57.68408 | 199 ft | 24 kts | 297° |
| 2026-04-26 09:13 | -20.43166 | 57.68247 | 199 ft | 24 kts | 297° |
| 2026-04-26 09:13 | -20.43090 | 57.68090 | 207 ft | 23 kts | 297° |
| 2026-04-26 09:13 | -20.43030 | 57.67967 | 207 ft | 15 kts | 297° |
| 2026-04-26 09:13 | -20.42990 | 57.67883 | 207 ft | 9 kts | 293° |
| 2026-04-26 09:14 | -20.43018 | 57.67830 | 201 ft | 10 kts | 212° |
| 2026-04-26 09:14 | -20.43081 | 57.67794 | 203 ft | 8 kts | 207° |
| 2026-04-26 09:14 | -20.43114 | 57.67776 | 205 ft | 3 kts | 207° |
| 2026-04-26 09:14 | -20.43128 | 57.67768 | 207 ft | 1 kts | 207° |
| 2026-04-26 09:15 | -20.43133 | 57.67766 | 207 ft | 0 kts | 207° |